createdAt,value
2023-02-23T00:02:08.725Z,27.20
2023-02-23T00:07:10.759Z,26.47
2023-02-23T00:12:12.772Z,26.23
2023-02-23T00:17:17.466Z,26.63
2023-02-23T00:22:19.443Z,27.07
2023-02-23T00:27:21.486Z,26.77
2023-02-23T00:32:24.525Z,27.43
2023-02-23T00:37:26.323Z,27.03
2023-02-23T00:42:32.162Z,28.10
2023-02-23T00:47:37.002Z,26.63
2023-02-23T00:52:40.988Z,28.60
2023-02-23T00:57:42.883Z,28.17
2023-02-23T01:02:46.784Z,28.87
2023-02-23T01:07:49.263Z,28.37
2023-02-23T01:12:52.415Z,28.63
2023-02-23T01:17:54.216Z,27.90
2023-02-23T01:22:56.186Z,28.73
2023-02-23T01:27:58.090Z,28.87
2023-02-23T01:33:00.890Z,28.80
2023-02-23T01:38:03.849Z,27.80
2023-02-23T01:43:17.538Z,27.23
2023-02-23T01:48:23.926Z,28.73
2023-02-23T01:53:29.123Z,26.10
2023-02-23T01:58:33.655Z,26.87
2023-02-23T02:03:43.652Z,25.60
2023-02-23T02:08:50.741Z,25.07
2023-02-23T02:13:59.056Z,25.70
2023-02-23T02:19:20.766Z,25.00
2023-02-23T02:24:36.565Z,26.50
2023-02-23T02:30:13.000Z,26.90
2023-02-23T02:35:51.802Z,26.30
2023-02-23T02:41:17.590Z,25.07
2023-02-23T02:46:27.269Z,28.07
2023-02-23T02:51:55.694Z,28.50
2023-02-23T02:57:02.235Z,28.03
2023-02-23T03:02:24.409Z,27.40
2023-02-23T03:08:03.942Z,29.03
2023-02-23T03:13:41.634Z,26.83
2023-02-23T03:19:31.554Z,28.43
2023-02-23T03:25:15.919Z,29.97
2023-02-23T03:31:19.251Z,30.83
2023-02-23T03:36:45.773Z,30.27
2023-02-23T03:42:08.896Z,29.27
2023-02-23T03:47:33.221Z,30.33
2023-02-23T03:53:01.547Z,28.23
2023-02-23T03:58:25.942Z,27.93
2023-02-23T04:03:49.235Z,27.83
2023-02-23T04:09:11.234Z,29.00
2023-02-23T04:14:22.728Z,31.10
2023-02-23T04:19:28.029Z,29.23
2023-02-23T04:24:30.052Z,28.67
2023-02-23T04:29:32.514Z,28.60
2023-02-23T04:34:34.426Z,29.63
2023-02-23T04:39:36.416Z,30.27
2023-02-23T04:44:38.297Z,32.03
2023-02-23T04:49:40.418Z,33.17
2023-02-23T04:54:43.477Z,32.60
2023-02-23T04:59:45.774Z,34.47
2023-02-23T05:04:47.832Z,32.77
2023-02-23T05:09:49.915Z,32.07
2023-02-23T05:14:51.812Z,32.33
2023-02-23T05:19:53.788Z,33.47
2023-02-23T05:24:57.432Z,33.73
2023-02-23T05:29:59.734Z,31.43
2023-02-23T05:35:02.621Z,33.07
2023-02-23T05:40:05.175Z,31.50
2023-02-23T05:45:08.005Z,33.57
2023-02-23T05:50:11.646Z,30.27
2023-02-23T05:55:13.678Z,34.07
2023-02-23T06:00:15.858Z,33.33
2023-02-23T06:05:18.143Z,32.23
2023-02-23T06:10:20.345Z,34.33
2023-02-23T06:15:22.166Z,30.73
2023-02-23T06:20:24.113Z,32.90
2023-02-23T06:25:26.410Z,30.53
2023-02-23T06:30:28.616Z,31.77
2023-02-23T06:35:31.202Z,33.33
2023-02-23T06:40:33.486Z,32.33
2023-02-23T06:45:35.303Z,31.80
2023-02-23T06:50:37.395Z,32.87
2023-02-23T06:55:39.568Z,32.37
2023-02-23T07:00:43.611Z,31.43
2023-02-23T07:05:45.983Z,31.03
2023-02-23T07:10:48.226Z,31.83
2023-02-23T07:15:50.861Z,31.30
2023-02-23T07:20:52.993Z,30.23
2023-02-23T07:26:00.520Z,30.17
2023-02-23T07:31:02.404Z,32.10
2023-02-23T07:36:04.534Z,31.23
2023-02-23T07:41:06.614Z,32.30
2023-02-23T07:46:09.137Z,32.53
2023-02-23T07:51:16.206Z,30.83
2023-02-23T07:56:18.274Z,32.13
2023-02-23T08:01:20.617Z,34.17
2023-02-23T08:06:22.717Z,32.17
2023-02-23T08:11:24.593Z,33.30
2023-02-23T08:16:31.877Z,34.47
2023-02-23T08:21:34.028Z,32.93
2023-02-23T08:26:37.977Z,33.40
2023-02-23T08:31:40.171Z,33.53
2023-02-23T08:36:45.394Z,33.90
2023-02-23T08:41:47.890Z,33.07
2023-02-23T08:46:49.937Z,35.60
2023-02-23T08:51:52.470Z,32.67
2023-02-23T08:56:58.044Z,34.93
2023-02-23T09:02:00.158Z,37.90
2023-02-23T09:07:03.087Z,38.27
2023-02-23T09:12:05.280Z,38.80
2023-02-23T09:17:07.802Z,39.67
2023-02-23T09:22:09.952Z,38.53
2023-02-23T09:27:13.061Z,36.33
2023-02-23T09:32:15.101Z,37.27
2023-02-23T09:37:17.299Z,40.10
2023-02-23T09:42:28.421Z,40.00
2023-02-23T09:47:40.442Z,40.87
2023-02-23T09:52:45.408Z,41.80
2023-02-23T09:57:49.734Z,40.20
2023-02-23T10:03:31.233Z,40.07
2023-02-23T10:08:48.616Z,35.37
2023-02-23T10:14:04.346Z,42.83
2023-02-23T10:19:13.439Z,41.53
2023-02-23T10:24:22.673Z,43.60
2023-02-23T10:29:32.670Z,43.40
2023-02-23T10:34:37.022Z,40.77
2023-02-23T10:39:42.031Z,39.50
2023-02-23T10:44:46.502Z,39.83
2023-02-23T10:49:51.634Z,37.77
2023-02-23T10:54:53.496Z,34.00
2023-02-23T11:00:17.027Z,31.00
2023-02-23T11:05:43.449Z,28.57
2023-02-23T11:10:56.478Z,31.30
2023-02-23T11:16:20.011Z,31.97
2023-02-23T11:21:29.555Z,28.30
2023-02-23T11:26:37.309Z,31.40
2023-02-23T11:31:40.717Z,30.97
2023-02-23T11:36:42.690Z,30.23
2023-02-23T11:41:44.772Z,27.83
2023-02-23T11:46:47.252Z,30.70
2023-02-23T11:51:51.874Z,31.13
2023-02-23T11:56:55.372Z,31.40
2023-02-23T12:02:06.300Z,34.63
2023-02-23T12:07:38.896Z,33.60
2023-02-23T12:12:51.796Z,33.40
2023-02-23T12:18:00.852Z,32.90
2023-02-23T12:23:10.402Z,34.10
2023-02-23T12:28:39.411Z,34.50
2023-02-23T12:33:48.429Z,32.00
2023-02-23T12:39:30.328Z,30.20
2023-02-23T12:44:42.975Z,31.70
2023-02-23T12:49:57.349Z,30.27
2023-02-23T12:54:59.696Z,30.77
2023-02-23T13:00:39.312Z,31.87
2023-02-23T13:05:48.620Z,31.43
2023-02-23T13:10:55.374Z,32.50
2023-02-23T13:16:01.596Z,32.73
2023-02-23T13:21:56.371Z,31.27
2023-02-23T13:27:33.964Z,30.67
2023-02-23T13:32:37.822Z,30.97
2023-02-23T13:37:54.803Z,35.10
2023-02-23T13:43:03.049Z,33.20
2023-02-23T13:48:32.807Z,32.53
2023-02-23T13:53:34.866Z,29.60
2023-02-23T13:58:37.466Z,32.10
2023-02-23T14:03:53.409Z,25.33
2023-02-23T14:09:11.897Z,21.13
2023-02-23T14:14:27.644Z,19.20
2023-02-23T14:19:37.977Z,19.10
2023-02-23T14:24:40.065Z,19.73
2023-02-23T14:29:44.842Z,19.03
2023-02-23T14:34:54.018Z,20.07
2023-02-23T14:40:17.633Z,20.37
2023-02-23T14:45:27.140Z,21.47
2023-02-23T14:50:32.413Z,17.60
2023-02-23T14:55:37.511Z,20.63
2023-02-23T15:00:42.647Z,20.00
2023-02-23T15:05:56.980Z,21.83
2023-02-23T15:11:22.599Z,22.63
2023-02-23T15:16:30.768Z,20.23
2023-02-23T15:21:35.772Z,17.53
2023-02-23T15:26:40.492Z,15.57
2023-02-23T15:31:53.032Z,15.37
2023-02-23T15:37:11.002Z,16.37
2023-02-23T15:42:22.118Z,15.13
2023-02-23T15:47:28.706Z,15.00
2023-02-23T15:52:33.243Z,14.77
2023-02-23T15:57:47.495Z,14.90
2023-02-23T16:02:49.858Z,13.90
2023-02-23T16:08:23.062Z,14.03
2023-02-23T16:13:25.291Z,11.83
2023-02-23T16:18:40.562Z,12.53
2023-02-23T16:23:47.765Z,13.10
2023-02-23T16:28:56.207Z,13.07
2023-02-23T16:34:00.012Z,13.03
2023-02-23T16:39:06.135Z,12.83
2023-02-23T16:44:16.425Z,12.53
2023-02-23T16:49:18.471Z,13.73
2023-02-23T16:54:20.466Z,13.27
2023-02-23T16:59:23.368Z,13.07
2023-02-23T17:04:25.343Z,13.07
2023-02-23T17:09:27.429Z,12.50
2023-02-23T17:14:31.806Z,12.50
2023-02-23T17:19:34.077Z,13.23
2023-02-23T17:24:35.916Z,13.50
2023-02-23T17:29:38.037Z,12.07
2023-02-23T17:34:40.376Z,13.10
2023-02-23T17:39:42.436Z,11.13
2023-02-23T17:44:44.581Z,11.50
2023-02-23T17:49:46.440Z,12.10
2023-02-23T17:54:48.577Z,11.30
2023-02-23T17:59:50.952Z,14.13
2023-02-23T18:04:53.558Z,13.70
2023-02-23T18:09:55.457Z,16.97
2023-02-23T18:14:58.093Z,19.67
2023-02-23T18:20:00.673Z,19.03
2023-02-23T18:25:02.998Z,16.97
2023-02-23T18:30:05.556Z,16.97
2023-02-23T18:35:07.869Z,16.50
2023-02-23T18:40:21.117Z,14.40
2023-02-23T18:45:23.148Z,15.87
2023-02-23T18:50:26.306Z,12.50
2023-02-23T18:55:28.732Z,11.60
2023-02-23T19:00:33.988Z,12.73
2023-02-23T19:05:37.708Z,13.30
2023-02-23T19:10:40.603Z,13.17
2023-02-23T19:15:43.740Z,14.07
2023-02-23T19:20:46.327Z,12.33
2023-02-23T19:25:49.759Z,13.90
2023-02-23T19:31:11.131Z,13.80
2023-02-23T19:36:15.696Z,14.80
2023-02-23T19:41:21.954Z,14.87
2023-02-23T19:46:25.596Z,14.13
2023-02-23T19:51:27.922Z,13.03
2023-02-23T19:56:30.172Z,12.23
2023-02-23T20:01:32.653Z,12.90
2023-02-23T20:06:40.995Z,15.40
2023-02-23T20:11:43.167Z,14.80
2023-02-23T20:16:45.370Z,12.53
2023-02-23T20:21:49.854Z,13.13
2023-02-23T20:26:56.879Z,13.00
2023-02-23T20:31:59.927Z,12.50
2023-02-23T20:37:04.379Z,11.27
2023-02-23T20:42:06.471Z,9.27
2023-02-23T20:47:10.029Z,6.27
2023-02-23T20:52:12.639Z,5.30
2023-02-23T20:57:15.237Z,5.20
2023-02-23T21:02:17.770Z,6.00
2023-02-23T21:07:25.589Z,6.17
2023-02-23T21:12:28.008Z,6.70
2023-02-23T21:17:30.117Z,6.17
2023-02-23T21:22:33.154Z,5.67
2023-02-23T21:27:35.089Z,5.80
2023-02-23T21:32:41.417Z,6.00
2023-02-23T21:37:43.610Z,6.03
2023-02-23T21:42:45.555Z,6.73
2023-02-23T21:47:48.859Z,6.07
2023-02-23T21:52:54.029Z,6.20
2023-02-23T21:57:58.278Z,5.83
2023-02-23T22:03:00.483Z,6.73
2023-02-23T22:08:02.582Z,6.20
2023-02-23T22:13:04.561Z,6.47
2023-02-23T22:18:07.230Z,5.97
2023-02-23T22:23:09.341Z,5.57
2023-02-23T22:28:11.537Z,5.00
2023-02-23T22:33:13.684Z,5.03
2023-02-23T22:38:19.011Z,4.50
2023-02-23T22:43:24.083Z,3.47
2023-02-23T22:48:28.315Z,3.10
2023-02-23T22:53:30.736Z,3.37
2023-02-23T22:58:32.776Z,3.73
2023-02-23T23:03:41.888Z,2.73
2023-02-23T23:08:46.012Z,2.47
2023-02-23T23:13:49.106Z,3.20
2023-02-23T23:18:56.262Z,2.80
2023-02-23T23:24:00.010Z,3.67
2023-02-23T23:29:06.666Z,3.93
2023-02-23T23:34:11.728Z,3.43
2023-02-23T23:39:16.036Z,3.30
2023-02-23T23:44:28.999Z,3.37
2023-02-23T23:49:39.900Z,3.63
2023-02-23T23:54:42.842Z,3.27
2023-02-23T23:59:46.218Z,3.23
